createdAt,value
2023-01-26T00:01:55.879Z,98.40
2023-01-26T00:04:42.819Z,98.70
2023-01-26T00:07:29.404Z,98.80
2023-01-26T00:10:15.884Z,98.50
2023-01-26T00:13:02.123Z,98.60
2023-01-26T00:15:48.774Z,98.50
2023-01-26T00:18:36.813Z,98.60
2023-01-26T00:21:24.411Z,98.30
2023-01-26T00:24:10.354Z,98.10
2023-01-26T00:26:56.200Z,98.20
2023-01-26T00:29:42.313Z,98.20
2023-01-26T00:32:28.344Z,98.50
2023-01-26T00:35:14.199Z,98.10
2023-01-26T00:38:00.525Z,98.00
2023-01-26T00:40:46.608Z,97.90
2023-01-26T00:43:33.273Z,98.00
2023-01-26T00:46:19.556Z,98.00
2023-01-26T00:49:05.519Z,98.10
2023-01-26T00:51:53.132Z,98.00
2023-01-26T00:54:39.339Z,98.20
2023-01-26T00:57:26.037Z,98.30
2023-01-26T01:00:16.771Z,98.00
2023-01-26T01:03:03.814Z,97.70
2023-01-26T01:05:49.776Z,97.90
2023-01-26T01:08:36.540Z,97.80
2023-01-26T01:11:22.569Z,97.70
2023-01-26T01:14:10.674Z,97.70
2023-01-26T01:16:57.265Z,97.90
2023-01-26T01:19:43.404Z,97.80
2023-01-26T01:22:29.504Z,97.90
2023-01-26T01:25:15.739Z,97.70
2023-01-26T01:28:02.104Z,97.80
2023-01-26T01:30:48.188Z,97.80
2023-01-26T01:33:34.476Z,97.90
2023-01-26T01:36:20.989Z,97.70
2023-01-26T01:39:07.486Z,97.90
2023-01-26T01:41:54.007Z,97.90
2023-01-26T01:44:40.039Z,98.00
2023-01-26T01:47:28.776Z,97.80
2023-01-26T01:50:19.406Z,97.60
2023-01-26T01:53:11.502Z,97.30
2023-01-26T01:56:04.498Z,97.60
2023-01-26T01:58:54.651Z,97.50
2023-01-26T02:01:41.417Z,97.70
2023-01-26T02:04:27.852Z,97.40
2023-01-26T02:07:14.370Z,97.50
2023-01-26T02:10:20.480Z,97.30
2023-01-26T02:13:07.573Z,97.40
2023-01-26T02:15:54.288Z,98.10
2023-01-26T02:18:41.206Z,97.80
2023-01-26T02:21:27.599Z,98.10
2023-01-26T02:24:21.605Z,97.50
2023-01-26T02:27:09.215Z,98.30
2023-01-26T02:29:56.894Z,97.50
2023-01-26T02:32:42.863Z,97.70
2023-01-26T02:35:28.727Z,97.40
2023-01-26T02:38:16.573Z,97.20
2023-01-26T02:41:38.479Z,97.20
2023-01-26T02:44:25.463Z,97.10
2023-01-26T02:47:19.329Z,97.00
2023-01-26T02:50:08.981Z,97.00
2023-01-26T02:52:54.918Z,97.00
2023-01-26T02:55:42.589Z,97.10
2023-01-26T02:58:28.888Z,97.20
2023-01-26T03:01:15.521Z,97.50
2023-01-26T03:04:06.661Z,97.40
2023-01-26T03:06:53.127Z,98.20
2023-01-26T03:09:39.125Z,98.10
2023-01-26T03:12:27.676Z,98.00
2023-01-26T03:15:32.090Z,97.90
2023-01-26T03:18:37.793Z,97.40
2023-01-26T03:21:42.166Z,97.20
2023-01-26T03:24:48.427Z,97.30
2023-01-26T03:27:40.927Z,97.60
2023-01-26T03:30:27.196Z,97.10
2023-01-26T03:33:13.578Z,97.20
2023-01-26T03:36:00.162Z,97.40
2023-01-26T03:38:47.129Z,97.20
2023-01-26T03:41:51.911Z,97.10
2023-01-26T03:44:56.494Z,96.90
2023-01-26T03:48:01.436Z,96.80
2023-01-26T03:51:07.379Z,97.30
2023-01-26T03:54:11.749Z,96.50
2023-01-26T03:56:57.700Z,96.30
2023-01-26T03:59:44.263Z,96.40
2023-01-26T04:02:53.890Z,96.30
2023-01-26T04:06:16.445Z,96.90
2023-01-26T04:09:06.455Z,96.70
2023-01-26T04:11:52.316Z,96.40
2023-01-26T04:14:57.786Z,96.30
2023-01-26T04:18:04.286Z,96.30
2023-01-26T04:21:09.802Z,96.40
2023-01-26T04:23:58.426Z,96.30
2023-01-26T04:26:44.795Z,96.10
2023-01-26T04:29:35.962Z,96.20
2023-01-26T04:32:22.407Z,96.30
2023-01-26T04:35:09.881Z,96.50
2023-01-26T04:37:56.767Z,96.70
2023-01-26T04:40:43.185Z,97.00
2023-01-26T04:43:30.178Z,97.10
2023-01-26T04:46:16.989Z,97.20
2023-01-26T04:49:03.466Z,97.00
2023-01-26T04:51:49.387Z,96.90
2023-01-26T04:54:35.812Z,97.00
2023-01-26T04:57:23.256Z,97.10
2023-01-26T05:00:12.200Z,97.10
2023-01-26T05:02:58.754Z,97.20
2023-01-26T05:05:48.002Z,97.40
2023-01-26T05:08:37.299Z,97.70
2023-01-26T05:11:23.996Z,97.30
2023-01-26T05:14:26.075Z,97.20
2023-01-26T05:17:19.378Z,97.40
2023-01-26T05:20:26.066Z,97.00
2023-01-26T05:23:34.025Z,96.80
2023-01-26T05:26:29.486Z,96.80
2023-01-26T05:29:19.630Z,96.70
2023-01-26T05:32:06.235Z,96.80
2023-01-26T05:34:53.355Z,97.10
2023-01-26T05:37:42.037Z,96.90
2023-01-26T05:40:29.121Z,96.90
2023-01-26T05:43:15.701Z,96.90
2023-01-26T05:46:08.590Z,96.70
2023-01-26T05:48:54.513Z,96.80
2023-01-26T05:51:40.308Z,96.80
2023-01-26T05:54:26.814Z,97.10
2023-01-26T05:57:16.823Z,96.80
2023-01-26T06:00:10.376Z,96.70
2023-01-26T06:03:05.357Z,96.70
2023-01-26T06:05:55.664Z,97.00
2023-01-26T06:08:54.847Z,96.70
2023-01-26T06:11:53.140Z,96.40
2023-01-26T06:14:49.365Z,96.60
2023-01-26T06:17:35.539Z,96.80
2023-01-26T06:20:24.481Z,96.80
2023-01-26T06:23:15.940Z,96.70
2023-01-26T06:26:03.994Z,96.70
2023-01-26T06:28:50.461Z,97.10
2023-01-26T06:31:37.427Z,97.40
2023-01-26T06:34:25.369Z,97.10
2023-01-26T06:37:11.368Z,97.20
2023-01-26T06:39:59.925Z,97.00
2023-01-26T06:42:50.193Z,97.00
2023-01-26T06:45:37.934Z,96.70
2023-01-26T06:48:28.736Z,96.90
2023-01-26T06:51:18.150Z,96.90
2023-01-26T06:54:04.583Z,96.60
2023-01-26T06:57:20.423Z,96.70
2023-01-26T07:00:12.472Z,96.50
2023-01-26T07:03:11.862Z,96.50
2023-01-26T07:05:58.098Z,96.70
2023-01-26T07:08:44.117Z,96.80
2023-01-26T07:11:32.366Z,96.60
2023-01-26T07:14:18.290Z,96.30
2023-01-26T07:17:04.239Z,96.00
2023-01-26T07:19:50.088Z,96.00
2023-01-26T07:22:36.152Z,96.00
2023-01-26T07:25:22.345Z,96.50
2023-01-26T07:28:10.120Z,96.40
2023-01-26T07:31:00.570Z,96.30
2023-01-26T07:33:46.894Z,96.50
2023-01-26T07:36:32.758Z,96.40
2023-01-26T07:39:18.795Z,96.30
2023-01-26T07:42:04.773Z,96.40
2023-01-26T07:45:04.774Z,96.50
2023-01-26T07:47:51.055Z,96.20
2023-01-26T07:50:37.412Z,96.60
2023-01-26T07:53:23.850Z,96.70
2023-01-26T07:56:12.642Z,96.60
2023-01-26T07:58:58.839Z,96.10
2023-01-26T08:01:44.989Z,96.50
2023-01-26T08:04:30.901Z,96.70
2023-01-26T08:07:16.832Z,96.40
2023-01-26T08:10:02.850Z,96.40
2023-01-26T08:12:48.791Z,96.10
2023-01-26T08:15:34.540Z,96.00
2023-01-26T08:18:20.803Z,96.20
2023-01-26T08:21:06.830Z,96.20
2023-01-26T08:23:53.160Z,96.00
2023-01-26T08:26:39.628Z,95.80
2023-01-26T08:29:25.679Z,96.00
2023-01-26T08:32:12.111Z,95.90
2023-01-26T08:34:58.088Z,95.80
2023-01-26T08:37:44.074Z,96.10
2023-01-26T08:40:30.230Z,96.40
2023-01-26T08:43:16.049Z,96.20
2023-01-26T08:46:02.038Z,96.10
2023-01-26T08:48:48.008Z,96.40
2023-01-26T08:51:33.925Z,96.40
2023-01-26T08:54:19.802Z,96.30
2023-01-26T08:57:06.306Z,95.80
2023-01-26T08:59:52.251Z,95.60
2023-01-26T09:02:38.354Z,96.30
2023-01-26T09:05:24.821Z,95.80
2023-01-26T09:08:10.752Z,96.20
2023-01-26T09:10:57.481Z,95.80
2023-01-26T09:13:43.439Z,95.70
2023-01-26T09:16:29.936Z,95.80
2023-01-26T09:19:16.259Z,95.80
2023-01-26T09:22:02.286Z,95.80
2023-01-26T09:24:48.290Z,96.00
2023-01-26T09:27:34.638Z,95.90
2023-01-26T09:30:21.327Z,95.80
2023-01-26T09:33:07.358Z,95.90
2023-01-26T09:35:53.350Z,95.50
2023-01-26T09:38:40.165Z,95.80
2023-01-26T09:41:37.534Z,95.90
2023-01-26T09:44:28.407Z,95.60
2023-01-26T09:47:21.722Z,95.60
2023-01-26T09:50:16.933Z,95.60
2023-01-26T09:53:12.922Z,96.00
2023-01-26T09:55:58.755Z,96.10
2023-01-26T09:58:49.413Z,95.90
2023-01-26T10:01:53.036Z,95.70
2023-01-26T10:04:43.697Z,95.60
2023-01-26T10:07:30.023Z,95.70
2023-01-26T10:10:23.774Z,95.80
2023-01-26T10:13:14.667Z,95.90
2023-01-26T10:16:07.649Z,95.60
2023-01-26T10:19:06.183Z,95.60
2023-01-26T10:21:55.430Z,95.70
2023-01-26T10:24:42.036Z,95.60
2023-01-26T10:27:29.500Z,95.60
2023-01-26T10:30:17.257Z,95.70
2023-01-26T10:33:09.881Z,95.60
2023-01-26T10:35:56.417Z,95.60
2023-01-26T10:38:44.269Z,95.70
2023-01-26T10:41:30.602Z,95.80
2023-01-26T10:44:18.516Z,95.60
2023-01-26T10:47:13.571Z,95.70
2023-01-26T10:50:23.348Z,95.50
2023-01-26T10:53:25.551Z,95.50
2023-01-26T10:56:17.201Z,95.10
2023-01-26T10:59:08.063Z,95.10
2023-01-26T11:02:14.258Z,95.00
2023-01-26T11:05:15.719Z,95.30
2023-01-26T11:08:03.439Z,95.20
2023-01-26T11:10:53.179Z,95.00
2023-01-26T11:13:39.092Z,95.80
2023-01-26T11:16:26.917Z,95.80
2023-01-26T11:19:21.071Z,95.50
2023-01-26T11:22:13.082Z,95.10
2023-01-26T11:25:18.543Z,95.10
2023-01-26T11:28:34.490Z,95.60
2023-01-26T11:31:33.050Z,95.40
2023-01-26T11:34:50.908Z,95.30
2023-01-26T11:37:57.525Z,95.40
2023-01-26T11:41:20.550Z,95.20
2023-01-26T11:44:46.460Z,95.20
2023-01-26T11:47:56.524Z,95.10
2023-01-26T11:50:47.854Z,95.50
2023-01-26T11:53:46.052Z,95.50
2023-01-26T11:56:59.923Z,95.70
2023-01-26T12:00:00.625Z,95.70
2023-01-26T12:02:57.453Z,95.80
2023-01-26T12:05:46.327Z,95.70
2023-01-26T12:09:01.772Z,95.50
2023-01-26T12:12:13.004Z,95.50
2023-01-26T12:15:11.039Z,95.50
2023-01-26T12:18:29.848Z,95.70
2023-01-26T12:21:21.334Z,95.50
2023-01-26T12:24:43.401Z,96.00
2023-01-26T12:27:47.884Z,95.50
2023-01-26T12:31:03.194Z,95.40
2023-01-26T12:33:53.794Z,95.60
2023-01-26T12:37:00.449Z,95.70
2023-01-26T12:40:25.258Z,95.50
2023-01-26T12:43:40.226Z,95.00
2023-01-26T12:46:31.471Z,94.90
2023-01-26T12:49:40.031Z,95.70
2023-01-26T12:52:32.068Z,95.00
2023-01-26T12:55:28.996Z,94.90
2023-01-26T12:58:23.798Z,95.00
2023-01-26T13:01:15.987Z,95.20
2023-01-26T13:04:12.768Z,95.70
2023-01-26T13:07:29.801Z,95.00
2023-01-26T13:10:16.232Z,94.30
2023-01-26T13:13:14.762Z,94.70
2023-01-26T13:16:16.260Z,94.10
2023-01-26T13:19:03.168Z,94.30
2023-01-26T13:21:49.402Z,94.30
2023-01-26T13:24:35.174Z,94.50
2023-01-26T13:27:39.368Z,94.90
2023-01-26T13:30:32.551Z,95.00
2023-01-26T13:33:23.713Z,94.90
2023-01-26T13:36:18.141Z,94.90
2023-01-26T13:39:14.327Z,95.10
2023-01-26T13:42:00.528Z,94.60
2023-01-26T13:44:56.990Z,94.90
2023-01-26T13:47:47.524Z,95.10
2023-01-26T13:50:38.852Z,94.90
2023-01-26T13:53:30.140Z,94.50
2023-01-26T13:56:22.227Z,94.20
2023-01-26T13:59:23.044Z,94.40
2023-01-26T14:02:26.204Z,95.10
2023-01-26T14:05:22.492Z,95.00
2023-01-26T14:08:15.795Z,94.90
2023-01-26T14:11:05.768Z,94.60
2023-01-26T14:14:02.078Z,94.90
2023-01-26T14:16:48.185Z,95.10
2023-01-26T14:19:40.234Z,95.10
2023-01-26T14:22:27.305Z,94.90
2023-01-26T14:25:19.302Z,94.80
2023-01-26T14:28:06.394Z,94.90
2023-01-26T14:30:57.988Z,95.20
2023-01-26T14:33:44.951Z,94.70
2023-01-26T14:36:39.152Z,94.40
2023-01-26T14:39:25.288Z,95.10
2023-01-26T14:42:15.081Z,94.80
2023-01-26T14:45:01.990Z,94.70
2023-01-26T14:47:48.496Z,94.90
2023-01-26T14:50:35.854Z,94.70
2023-01-26T14:53:24.295Z,94.90
2023-01-26T14:56:18.667Z,94.80
2023-01-26T14:59:07.480Z,94.80
2023-01-26T15:02:21.723Z,94.80
2023-01-26T15:05:17.281Z,95.00
2023-01-26T15:08:20.923Z,94.70
2023-01-26T15:11:25.951Z,94.40
2023-01-26T15:14:24.028Z,94.30
2023-01-26T15:17:28.191Z,94.20
2023-01-26T15:20:23.446Z,94.30
2023-01-26T15:23:31.789Z,94.80
2023-01-26T15:26:29.920Z,94.30
2023-01-26T15:29:25.990Z,94.10
2023-01-26T15:32:28.446Z,94.20
2023-01-26T15:35:25.277Z,94.40
2023-01-26T15:38:12.921Z,94.20
2023-01-26T15:40:59.322Z,94.30
2023-01-26T15:43:45.563Z,94.50
2023-01-26T15:46:31.804Z,94.50
2023-01-26T15:49:20.004Z,94.50
2023-01-26T15:52:15.115Z,94.70
2023-01-26T15:55:00.922Z,94.50
2023-01-26T15:57:46.813Z,94.40
2023-01-26T16:00:33.197Z,94.40
2023-01-26T16:03:21.680Z,94.70
2023-01-26T16:06:26.048Z,95.00
2023-01-26T16:09:12.261Z,94.70
2023-01-26T16:11:58.434Z,94.50
2023-01-26T16:14:44.598Z,94.40
2023-01-26T16:17:30.711Z,94.60
2023-01-26T16:20:17.519Z,94.60
2023-01-26T16:23:06.323Z,94.60
2023-01-26T16:25:52.409Z,94.40
2023-01-26T16:28:39.029Z,94.40
2023-01-26T16:31:28.510Z,94.40
2023-01-26T16:34:14.830Z,94.30
2023-01-26T16:37:00.827Z,94.60
2023-01-26T16:39:46.595Z,94.50
2023-01-26T16:42:33.584Z,94.70
2023-01-26T16:45:22.386Z,94.90
2023-01-26T16:48:15.120Z,94.60
2023-01-26T16:51:11.783Z,95.00
2023-01-26T16:53:58.301Z,94.80
2023-01-26T16:56:45.133Z,94.70
2023-01-26T16:59:31.610Z,94.80
2023-01-26T17:02:32.942Z,94.40
2023-01-26T17:05:21.619Z,94.40
2023-01-26T17:08:08.185Z,94.80
2023-01-26T17:11:02.002Z,95.20
2023-01-26T17:13:49.675Z,94.70
2023-01-26T17:16:36.257Z,94.70
2023-01-26T17:19:22.665Z,94.60
2023-01-26T17:22:08.451Z,94.80
2023-01-26T17:24:54.415Z,95.00
2023-01-26T17:27:40.703Z,94.60
2023-01-26T17:30:27.414Z,94.70
2023-01-26T17:33:13.660Z,94.50
2023-01-26T17:36:01.064Z,94.70
2023-01-26T17:38:48.461Z,94.50
2023-01-26T17:41:34.457Z,94.40
2023-01-26T17:44:20.957Z,94.40
2023-01-26T17:47:08.622Z,94.60
2023-01-26T17:49:55.028Z,94.70
2023-01-26T17:52:40.922Z,94.70
2023-01-26T17:55:26.908Z,95.00
2023-01-26T17:58:12.669Z,95.00
2023-01-26T18:00:58.614Z,94.90
2023-01-26T18:03:44.504Z,94.70
2023-01-26T18:06:30.555Z,94.60
2023-01-26T18:09:16.743Z,94.70
2023-01-26T18:12:02.722Z,94.80
2023-01-26T18:14:49.547Z,95.00
2023-01-26T18:17:36.785Z,94.70
2023-01-26T18:20:23.258Z,94.30
2023-01-26T18:23:09.736Z,94.10
2023-01-26T18:25:55.798Z,94.50
2023-01-26T18:28:43.147Z,94.40
2023-01-26T18:31:31.926Z,94.40
2023-01-26T18:34:17.932Z,94.50
2023-01-26T18:37:03.700Z,94.60
2023-01-26T18:39:49.564Z,94.80
2023-01-26T18:42:35.952Z,94.80
2023-01-26T18:45:22.562Z,94.50
2023-01-26T18:48:08.532Z,94.10
2023-01-26T18:50:54.991Z,94.10
2023-01-26T18:53:41.415Z,94.20
2023-01-26T18:56:27.838Z,94.50
2023-01-26T18:59:14.275Z,94.90
2023-01-26T19:02:00.368Z,94.70
2023-01-26T19:04:46.492Z,94.40
2023-01-26T19:07:32.654Z,94.50
2023-01-26T19:10:18.598Z,94.60
2023-01-26T19:13:08.510Z,94.30
2023-01-26T19:15:54.795Z,94.40
2023-01-26T19:18:41.151Z,94.50
2023-01-26T19:21:28.619Z,94.70
2023-01-26T19:24:14.617Z,94.50
2023-01-26T19:27:01.418Z,94.50
2023-01-26T19:29:47.445Z,94.70
2023-01-26T19:32:33.602Z,94.70
2023-01-26T19:35:19.561Z,94.90
2023-01-26T19:38:06.125Z,94.90
2023-01-26T19:40:52.875Z,94.50
2023-01-26T19:43:38.759Z,94.80
2023-01-26T19:46:24.783Z,94.60
2023-01-26T19:49:11.829Z,94.90
2023-01-26T19:51:57.952Z,94.60
2023-01-26T19:54:43.863Z,94.90
2023-01-26T19:57:32.215Z,95.00
2023-01-26T20:00:18.883Z,94.80
2023-01-26T20:03:04.769Z,95.00
2023-01-26T20:05:51.386Z,95.10
2023-01-26T20:08:37.252Z,95.00
2023-01-26T20:11:29.699Z,95.00
2023-01-26T20:14:15.943Z,94.70
2023-01-26T20:17:03.022Z,94.60
2023-01-26T20:19:49.108Z,95.00
2023-01-26T20:22:34.963Z,94.40
2023-01-26T20:25:20.983Z,94.60
2023-01-26T20:28:06.787Z,94.80
2023-01-26T20:30:55.541Z,95.40
2023-01-26T20:33:41.880Z,95.50
2023-01-26T20:36:28.553Z,95.70
2023-01-26T20:39:16.683Z,95.30
2023-01-26T20:42:02.976Z,95.00
2023-01-26T20:44:49.026Z,94.90
2023-01-26T20:47:38.167Z,95.30
2023-01-26T20:50:24.230Z,95.70
2023-01-26T20:53:10.921Z,95.80
2023-01-26T20:55:58.784Z,95.60
2023-01-26T20:58:45.076Z,96.10
2023-01-26T21:01:33.764Z,96.10
2023-01-26T21:04:19.778Z,96.20
2023-01-26T21:07:06.525Z,96.60
2023-01-26T21:09:52.627Z,96.60
2023-01-26T21:12:38.496Z,96.40
2023-01-26T21:15:24.562Z,96.60
2023-01-26T21:18:10.581Z,96.50
2023-01-26T21:20:58.530Z,96.60
2023-01-26T21:23:45.458Z,96.80
2023-01-26T21:26:32.846Z,96.90
2023-01-26T21:29:18.867Z,96.70
2023-01-26T21:32:05.029Z,96.60
2023-01-26T21:34:51.300Z,96.50
2023-01-26T21:37:37.320Z,96.70
2023-01-26T21:40:23.496Z,96.70
2023-01-26T21:43:09.433Z,96.70
2023-01-26T21:45:56.948Z,96.60
2023-01-26T21:48:43.307Z,96.70
2023-01-26T21:51:48.165Z,97.00
2023-01-26T21:54:34.102Z,96.90
2023-01-26T21:57:38.470Z,97.20
2023-01-26T22:00:24.670Z,96.90
2023-01-26T22:03:10.772Z,96.80
2023-01-26T22:05:56.967Z,97.00
2023-01-26T22:08:43.509Z,96.70
2023-01-26T22:11:30.002Z,97.00
2023-01-26T22:14:21.917Z,96.90
2023-01-26T22:17:08.027Z,97.10
2023-01-26T22:19:56.171Z,96.90
2023-01-26T22:22:42.225Z,96.60
2023-01-26T22:25:28.213Z,96.90
2023-01-26T22:28:14.075Z,97.40
2023-01-26T22:31:06.866Z,97.30
2023-01-26T22:33:53.854Z,97.70
2023-01-26T22:36:40.469Z,97.70
2023-01-26T22:39:26.705Z,98.10
2023-01-26T22:42:12.634Z,98.40
2023-01-26T22:44:58.574Z,98.50
2023-01-26T22:47:44.699Z,99.00
2023-01-26T22:50:30.724Z,98.60
2023-01-26T22:53:17.138Z,98.60
2023-01-26T22:56:04.624Z,98.50
2023-01-26T22:58:58.189Z,98.70
2023-01-26T23:01:45.187Z,99.20
2023-01-26T23:04:31.033Z,99.10
2023-01-26T23:07:17.321Z,99.20
2023-01-26T23:10:03.284Z,98.90
2023-01-26T23:12:49.607Z,98.50
2023-01-26T23:15:35.475Z,98.80
2023-01-26T23:18:21.521Z,98.70
2023-01-26T23:21:08.460Z,98.80
2023-01-26T23:23:54.739Z,98.60
2023-01-26T23:26:40.872Z,98.80
2023-01-26T23:29:27.223Z,99.00
2023-01-26T23:32:13.034Z,99.00
2023-01-26T23:34:58.995Z,99.00
2023-01-26T23:37:45.001Z,99.00
2023-01-26T23:40:30.896Z,99.30
2023-01-26T23:43:17.642Z,99.30
2023-01-26T23:46:05.997Z,99.20
2023-01-26T23:48:52.105Z,99.30
2023-01-26T23:51:38.387Z,99.30
2023-01-26T23:54:24.231Z,99.00
2023-01-26T23:57:10.479Z,98.50
2023-01-26T23:59:56.688Z,98.40
